Time;durP1;ratioP1;P1;durP2;ratioP2;P2;SDS_P1;SDS_P2;PMS_P1;PMS_P2;Temp;Humidity;BMP_temperature;BMP_pressure;BME280_temperature;BME280_humidity;BME280_pressure;Samples;Min_cycle;Max_cycle;Signal;HPM_P1;HPM_P2
2021/12/15 00:01:57;;;;;;;6.40;4.43;;;;;;;18.71;51.73;101729.94;5091475;28;20579;-60
2021/12/15 00:04:22;;;;;;;8.43;3.70;;;;;;;18.72;51.43;101731.63;5105293;28;20280;-60
2021/12/15 00:06:48;;;;;;;8.70;4.67;;;;;;;18.75;51.50;101734.63;5091037;28;20499;-60
2021/12/15 00:09:13;;;;;;;6.50;4.30;;;;;;;18.71;51.46;101735.69;5091807;28;20665;-60
2021/12/15 00:11:39;;;;;;;9.90;4.77;;;;;;;18.71;51.46;101733.63;5092960;28;20178;-60
2021/12/15 00:14:09;;;;;;;7.23;4.20;;;;;;;18.72;51.76;101735.31;5103831;28;20707;-60
2021/12/15 00:16:35;;;;;;;7.60;4.30;;;;;;;18.72;51.57;101734.47;5090814;28;20490;-60
2021/12/15 00:19:00;;;;;;;6.87;4.50;;;;;;;18.75;51.26;101740.34;5097062;28;20462;-60
2021/12/15 00:21:26;;;;;;;9.30;4.00;;;;;;;18.76;51.37;101739.16;5111270;28;20177;-60
2021/12/15 00:23:51;;;;;;;8.23;4.60;;;;;;;18.71;51.40;101729.94;5107641;28;20186;-60
2021/12/15 00:26:17;;;;;;;7.10;4.03;;;;;;;18.68;51.48;101737.22;5087054;28;20794;-60
2021/12/15 00:28:43;;;;;;;8.70;4.10;;;;;;;18.71;51.61;101741.41;5111123;28;20166;-60
2021/12/15 00:31:09;;;;;;;8.10;4.30;;;;;;;18.68;51.62;101742.94;5104264;28;20222;-60
2021/12/15 00:33:34;;;;;;;6.80;3.90;;;;;;;18.71;51.55;101736.50;5109116;28;20462;-60
2021/12/15 00:36:00;;;;;;;7.57;4.70;;;;;;;18.71;51.86;101735.69;5110776;28;20572;-60
2021/12/15 00:38:25;;;;;;;6.00;3.83;;;;;;;18.69;51.66;101733.16;5114961;27;20181;-60
2021/12/15 00:40:51;;;;;;;7.67;4.60;;;;;;;18.67;51.44;101728.97;5113824;27;20629;-60
2021/12/15 00:43:18;;;;;;;8.70;4.57;;;;;;;18.69;51.83;101727.44;5111724;28;20641;-60
2021/12/15 00:45:44;;;;;;;8.63;4.60;;;;;;;18.69;51.34;101727.44;5089984;28;20226;-59
2021/12/15 00:48:09;;;;;;;10.60;5.27;;;;;;;18.69;52.15;101730.28;5095265;28;20874;-60
2021/12/15 00:50:35;;;;;;;8.03;4.20;;;;;;;18.72;51.62;101728.75;5090816;28;20421;-60
2021/12/15 00:53:01;;;;;;;8.63;4.83;;;;;;;18.66;51.67;101730.97;5091720;28;20170;-60
2021/12/15 00:55:28;;;;;;;7.70;4.00;;;;;;;18.67;51.69;101731.81;5095074;28;20185;-60
2021/12/15 00:57:53;;;;;;;6.10;3.87;;;;;;;18.68;51.53;101731.47;5111175;28;20423;-60
2021/12/15 01:00:21;;;;;;;8.00;4.87;;;;;;;18.69;51.66;101726.59;5102438;28;20840;-60
2021/12/15 01:02:48;;;;;;;6.37;3.97;;;;;;;18.70;52.25;101729.09;5108986;28;20224;-60
2021/12/15 01:05:15;;;;;;;7.40;4.20;;;;;;;18.65;51.67;101725.59;5110827;28;20926;-60
2021/12/15 01:07:41;;;;;;;8.60;4.60;;;;;;;18.65;51.81;101729.31;5111415;28;20424;-60
2021/12/15 01:10:08;;;;;;;10.13;4.07;;;;;;;18.68;51.46;101731.47;5107263;28;20458;-60
2021/12/15 01:14:29;;;;;;;8.37;4.60;;;;;;;18.66;52.28;101727.28;5108096;28;20459;-60
2021/12/15 01:21:01;;;;;;;8.87;4.30;;;;;;;18.64;51.98;101729.66;5110128;28;20422;-60
2021/12/15 01:23:28;;;;;;;8.43;4.30;;;;;;;18.65;51.83;101728.47;5103677;28;20448;-60
2021/12/15 01:26:05;;;;;;;5.53;4.03;;;;;;;18.66;51.46;101733.03;5077776;28;20182;-60
2021/12/15 01:28:31;;;;;;;8.67;5.30;;;;;;;18.64;52.02;101733.34;5090054;28;20423;-60
2021/12/15 01:30:56;;;;;;;7.70;4.33;;;;;;;18.61;51.95;101731.19;5093326;28;20412;-60
2021/12/15 01:33:22;;;;;;;7.73;4.83;;;;;;;18.65;51.42;101735.03;5095152;28;20190;-60
2021/12/15 01:35:49;;;;;;;7.03;4.60;;;;;;;18.61;52.06;101736.91;5075513;28;20181;-60
2021/12/15 01:38:15;;;;;;;8.90;4.50;;;;;;;18.62;52.12;101747.16;5112671;28;20182;-60
2021/12/15 01:40:43;;;;;;;7.47;4.27;;;;;;;18.63;51.78;101739.41;5110341;28;20455;-60
2021/12/15 01:43:27;;;;;;;9.47;4.90;;;;;;;18.68;51.72;101739.22;5100082;28;20474;-60
2021/12/15 01:48:39;;;;;;;7.43;5.00;;;;;;;18.61;51.67;101736.91;5090720;28;20872;-60
2021/12/15 01:51:05;;;;;;;6.80;4.90;;;;;;;18.64;52.02;101746.81;5092497;28;20440;-60
2021/12/15 01:53:30;;;;;;;7.50;4.43;;;;;;;18.65;51.71;101742.75;5107524;28;20614;-60
2021/12/15 01:55:56;;;;;;;8.30;4.50;;;;;;;18.63;51.55;101740.28;5091508;28;20448;-60
2021/12/15 01:58:21;;;;;;;9.43;4.60;;;;;;;18.65;51.75;101742.75;5106384;28;20208;-60
2021/12/15 02:00:49;;;;;;;7.17;4.03;;;;;;;18.63;51.93;101746.00;5109809;28;20237;-60
2021/12/15 02:03:15;;;;;;;7.87;5.00;;;;;;;18.66;51.48;101756.72;5099303;28;20186;-60
2021/12/15 02:05:40;;;;;;;7.87;4.77;;;;;;;18.63;51.75;101753.72;5108836;28;22113;-60
2021/12/15 02:08:07;;;;;;;7.07;4.90;;;;;;;18.65;51.53;101743.59;5097042;28;20182;-60
2021/12/15 02:10:35;;;;;;;8.00;4.50;;;;;;;18.64;51.92;101750.53;5089492;28;20202;-60
2021/12/15 02:13:05;;;;;;;6.83;4.30;;;;;;;18.64;51.58;101747.66;5090352;28;20427;-60
2021/12/15 02:15:33;;;;;;;7.03;3.63;;;;;;;18.61;51.78;101744.66;5094556;28;20435;-60
2021/12/15 02:17:58;;;;;;;8.50;4.60;;;;;;;18.61;51.59;101747.53;5109754;28;20647;-60
2021/12/15 02:20:35;;;;;;;6.57;3.97;;;;;;;18.66;51.54;101751.00;5107965;28;20463;-60
2021/12/15 02:23:01;;;;;;;7.60;4.27;;;;;;;18.63;51.63;101745.13;5101670;28;20197;-60
2021/12/15 02:25:27;;;;;;;7.10;4.30;;;;;;;18.64;51.51;101750.53;5080403;28;20767;-60
2021/12/15 02:27:52;;;;;;;10.20;5.27;;;;;;;18.59;51.73;101747.00;5112130;28;20539;-60
2021/12/15 02:38:33;;;;;;;7.57;4.37;;;;;;;18.63;51.52;101742.28;5111001;27;20496;-60
2021/12/15 02:41:06;;;;;;;7.93;4.53;;;;;;;18.59;52.12;101733.56;5092785;28;20424;-60
2021/12/15 02:43:32;;;;;;;8.10;4.80;;;;;;;18.60;51.91;101740.09;5094099;28;20423;-60
2021/12/15 02:45:58;;;;;;;6.27;4.60;;;;;;;18.61;52.10;101736.91;5102688;28;20871;-60
2021/12/15 02:48:23;;;;;;;6.83;4.03;;;;;;;18.59;51.87;101745.00;5114070;28;20282;-60
2021/12/15 02:50:48;;;;;;;7.70;4.60;;;;;;;18.61;51.32;101747.53;5113362;28;20174;-60
2021/12/15 02:53:14;;;;;;;8.97;5.00;;;;;;;18.56;51.87;101737.09;5114116;28;20178;-60
2021/12/15 02:55:39;;;;;;;7.93;4.40;;;;;;;18.61;51.61;101742.63;5103445;28;20193;-60
2021/12/15 02:58:06;;;;;;;8.27;5.03;;;;;;;18.60;51.77;101745.81;5093513;28;20307;-59
2021/12/15 03:00:46;;;;;;;6.93;4.20;;;;;;;18.57;51.68;101732.22;5076671;28;20568;-60
2021/12/15 03:05:49;;;;;;;7.80;4.70;;;;;;;18.58;51.63;101740.47;5094803;28;20468;-60
2021/12/15 03:08:22;;;;;;;7.57;4.47;;;;;;;18.59;51.67;101741.28;5107021;28;20408;-60
2021/12/15 03:16:18;;;;;;;5.77;3.90;;;;;;;18.54;51.52;101736.63;5102973;28;20475;-60
2021/12/15 03:18:44;;;;;;;6.37;4.50;;;;;;;18.55;51.82;101751.75;5093683;28;20436;-61
2021/12/15 03:21:17;;;;;;;7.53;4.50;;;;;;;18.54;51.77;101736.63;5095028;28;20590;-62
2021/12/15 03:23:55;;;;;;;9.23;5.30;;;;;;;18.54;52.14;101748.06;5094856;28;20186;-60
2021/12/15 03:26:32;;;;;;;7.80;4.83;;;;;;;18.55;51.87;101749.72;5097202;28;20411;-60
2021/12/15 03:37:33;;;;;;;7.20;4.00;;;;;;;18.58;51.87;101749.06;5025225;28;20459;-59
2021/12/15 03:40:10;;;;;;;10.00;5.33;;;;;;;18.56;51.67;101754.25;5027880;28;20455;-60
2021/12/15 03:42:40;;;;;;;7.43;4.40;;;;;;;18.60;51.60;101742.97;5065680;28;20451;-60
2021/12/15 03:45:08;;;;;;;6.83;4.80;;;;;;;18.60;52.14;101749.53;5092719;28;20424;-60
2021/12/15 03:47:35;;;;;;;8.87;5.03;;;;;;;18.59;51.51;101752.72;5091649;28;20428;-60
2021/12/15 03:50:00;;;;;;;7.13;5.10;;;;;;;18.60;52.09;101751.53;5092648;28;20416;-60
2021/12/15 03:52:26;;;;;;;7.40;4.50;;;;;;;18.57;51.88;101747.34;5098562;28;20783;-60
2021/12/15 03:54:51;;;;;;;8.70;5.03;;;;;;;18.59;51.70;101744.16;5091464;28;20197;-60
2021/12/15 03:57:17;;;;;;;7.67;5.13;;;;;;;18.60;51.77;101748.69;5094067;28;20191;-60
2021/12/15 03:59:44;;;;;;;7.07;4.57;;;;;;;18.58;51.93;101743.34;5109636;28;20205;-60
2021/12/15 04:02:11;;;;;;;7.53;4.00;;;;;;;18.58;51.83;101751.91;5105551;28;20237;-60
2021/12/15 04:04:37;;;;;;;7.07;5.00;;;;;;;18.59;51.56;101753.59;5109465;28;21001;-60
2021/12/15 04:07:03;;;;;;;7.83;5.07;;;;;;;18.59;51.56;101756.44;5111797;28;20502;-60
2021/12/15 04:09:29;;;;;;;6.27;4.23;;;;;;;18.59;51.59;101756.44;5102872;28;20210;-60
2021/12/15 04:11:55;;;;;;;7.23;4.60;;;;;;;18.61;51.41;101753.25;5110962;28;20181;-60
2021/12/15 04:14:23;;;;;;;6.60;4.50;;;;;;;18.59;51.67;101756.44;5107218;28;20263;-60
2021/12/15 04:17:05;;;;;;;8.70;4.73;;;;;;;18.57;51.93;101755.13;5112064;28;20493;-60
2021/12/15 04:19:31;;;;;;;5.83;4.10;;;;;;;18.56;51.93;101757.13;5111520;28;21185;-60
2021/12/15 04:21:57;;;;;;;6.60;4.37;;;;;;;18.55;51.75;101752.59;5101458;28;20446;-61
2021/12/15 04:24:25;;;;;;;10.10;4.87;;;;;;;18.58;51.66;101754.78;5113623;27;20420;-60
2021/12/15 04:26:51;;;;;;;6.83;4.43;;;;;;;18.54;51.81;101753.78;5072647;28;21005;-60
2021/12/15 04:29:16;;;;;;;7.57;4.90;;;;;;;18.62;51.33;101757.78;5103165;28;20456;-60
2021/12/15 04:31:55;;;;;;;7.50;4.60;;;;;;;18.52;51.74;101750.41;5072264;28;20290;-62
2021/12/15 04:34:21;;;;;;;7.47;4.17;;;;;;;18.59;51.77;101752.72;5098285;28;20233;-60
2021/12/15 04:36:47;;;;;;;7.50;4.10;;;;;;;18.56;51.71;101759.97;5112140;27;20419;-60
2021/12/15 04:39:15;;;;;;;8.77;4.00;;;;;;;18.60;51.47;101757.25;5131929;27;20258;-60
2021/12/15 04:41:46;;;;;;;5.90;3.90;;;;;;;18.57;51.78;101755.94;5121940;27;20467;-60
2021/12/15 04:44:12;;;;;;;7.57;4.87;;;;;;;18.62;51.25;101754.91;5112879;27;20413;-60
2021/12/15 04:46:40;;;;;;;7.23;4.43;;;;;;;18.59;51.88;101764.19;5108425;28;20868;-60
2021/12/15 04:49:06;;;;;;;7.17;4.37;;;;;;;18.59;51.61;101761.31;5094726;28;20517;-60
2021/12/15 04:51:32;;;;;;;7.67;4.53;;;;;;;18.56;51.49;101767.75;5089341;28;20492;-60
2021/12/15 04:53:57;;;;;;;8.13;4.87;;;;;;;18.57;51.50;101763.69;5096116;28;20526;-60
2021/12/15 04:56:24;;;;;;;9.30;5.47;;;;;;;18.58;51.61;101766.22;5111392;28;20197;-60
2021/12/15 04:58:49;;;;;;;8.87;4.90;;;;;;;18.56;51.52;101771.41;5110800;28;20185;-60
2021/12/15 05:01:15;;;;;;;7.60;4.67;;;;;;;18.55;51.72;101771.75;5093095;28;20470;-60
2021/12/15 05:03:41;;;;;;;7.40;4.07;;;;;;;18.56;51.53;101770.59;5085995;28;20192;-60
2021/12/15 05:06:06;;;;;;;7.20;4.47;;;;;;;18.56;51.63;101771.41;5090744;28;20228;-60
2021/12/15 05:08:32;;;;;;;7.60;4.33;;;;;;;18.58;51.81;101766.22;5093303;28;20186;-60
2021/12/15 05:10:59;;;;;;;8.07;4.67;;;;;;;18.60;51.56;101778.13;5094470;28;20194;-60
2021/12/15 05:13:25;;;;;;;6.93;4.53;;;;;;;18.57;51.56;101775.94;5090403;28;20186;-60
2021/12/15 05:15:50;;;;;;;7.10;4.53;;;;;;;18.59;51.62;101781.34;5096713;28;20517;-60
2021/12/15 05:18:16;;;;;;;7.13;4.87;;;;;;;18.58;51.62;101791.97;5107886;28;20261;-60
2021/12/15 05:20:46;;;;;;;6.80;4.30;;;;;;;18.51;51.66;101791.63;5100610;28;20198;-60
2021/12/15 05:23:14;;;;;;;7.30;4.73;;;;;;;18.52;51.63;101789.63;5104902;28;20371;-60
2021/12/15 05:25:39;;;;;;;6.97;4.67;;;;;;;18.55;51.84;101786.06;5089645;28;20442;-60
2021/12/15 05:28:05;;;;;;;7.00;4.07;;;;;;;18.56;51.71;101790.63;5092499;28;20435;-61
2021/12/15 05:30:30;;;;;;;8.33;5.37;;;;;;;18.56;51.55;101780.00;5102612;28;20663;-60
2021/12/15 05:32:56;;;;;;;8.00;4.20;;;;;;;18.56;51.54;101788.59;5110104;28;20173;-60
2021/12/15 05:35:23;;;;;;;6.77;4.70;;;;;;;18.53;51.76;101789.28;5100342;28;20182;-60
2021/12/15 05:37:50;;;;;;;7.17;4.20;;;;;;;18.63;51.33;101786.03;5102787;28;20177;-60
2021/12/15 05:40:16;;;;;;;8.37;4.83;;;;;;;18.59;51.36;101799.34;5131286;28;20461;-60
2021/12/15 05:42:41;;;;;;;7.00;4.27;;;;;;;18.54;51.70;101793.81;5126271;28;20898;-60
2021/12/15 05:45:07;;;;;;;7.13;4.87;;;;;;;18.60;51.77;101789.56;5108515;28;20702;-60
2021/12/15 05:47:33;;;;;;;7.20;4.70;;;;;;;18.63;51.67;101790.91;5110437;28;20605;-60
2021/12/15 05:49:58;;;;;;;6.63;3.70;;;;;;;18.59;51.80;101795.63;5100673;28;20430;-60
2021/12/15 05:52:30;;;;;;;7.17;4.77;;;;;;;18.59;51.49;101793.63;5110905;28;20158;-60
2021/12/15 05:54:55;;;;;;;6.17;3.93;;;;;;;18.57;51.46;101798.00;5110576;28;20169;-60
2021/12/15 05:57:20;;;;;;;6.83;4.43;;;;;;;18.57;51.76;101789.44;5094113;28;20427;-60
2021/12/15 05:59:46;;;;;;;6.70;4.60;;;;;;;18.59;51.53;101805.06;5100190;28;20216;-60
2021/12/15 06:02:11;;;;;;;7.60;5.00;;;;;;;18.55;51.40;101791.78;5100049;28;20221;-60
2021/12/15 06:04:37;;;;;;;7.40;4.83;;;;;;;18.55;51.71;101801.22;5114335;28;20170;-60
2021/12/15 06:07:03;;;;;;;7.07;4.53;;;;;;;18.56;51.52;101797.16;5114734;28;20189;-60
2021/12/15 06:09:28;;;;;;;6.40;4.47;;;;;;;18.61;51.35;101808.41;5113199;28;20190;-60
2021/12/15 06:11:54;;;;;;;6.87;4.53;;;;;;;18.59;51.40;101807.06;5105739;28;20427;-60
2021/12/15 06:14:24;;;;;;;7.80;4.60;;;;;;;18.58;51.40;101803.41;5114112;28;20177;-59
2021/12/15 06:16:57;;;;;;;6.03;4.00;;;;;;;18.55;51.74;101808.94;5080671;28;20199;-59
2021/12/15 06:19:22;;;;;;;6.27;4.30;;;;;;;18.56;51.72;101808.59;5110808;28;21207;-59
2021/12/15 06:21:48;;;;;;;6.30;4.57;;;;;;;18.57;51.46;101813.13;5098293;28;20518;-59
2021/12/15 06:24:13;;;;;;;7.07;4.60;;;;;;;18.56;51.60;101808.59;5093127;28;20173;-59
2021/12/15 06:26:39;;;;;;;6.97;4.07;;;;;;;18.54;51.79;101807.28;5104441;28;20170;-59
2021/12/15 06:29:04;;;;;;;5.90;4.03;;;;;;;18.52;51.71;101813.34;5113930;28;20186;-59
2021/12/15 06:31:30;;;;;;;8.60;4.60;;;;;;;18.53;51.67;101812.16;5116916;27;20181;-59
2021/12/15 06:33:55;;;;;;;7.80;4.83;;;;;;;18.60;51.51;101815.31;5092542;28;20545;-59
2021/12/15 06:36:21;;;;;;;6.60;4.50;;;;;;;18.55;51.51;101811.81;5114073;28;20513;-59
2021/12/15 06:38:50;;;;;;;6.70;4.30;;;;;;;18.52;51.79;101821.09;5130144;27;20173;-59
2021/12/15 06:41:19;;;;;;;6.50;4.43;;;;;;;18.56;51.60;101824.94;5131288;27;20419;-59
2021/12/15 06:43:48;;;;;;;5.97;3.40;;;;;;;18.55;51.56;101821.25;5121161;27;20602;-59
2021/12/15 06:59:50;;;;;;;7.07;4.43;;;;;;;18.59;51.38;101830.81;5098345;28;20462;-59
2021/12/15 07:02:16;;;;;;;6.97;4.43;;;;;;;18.59;51.68;101841.41;5105973;28;20940;-59
2021/12/15 07:04:41;;;;;;;7.30;5.17;;;;;;;18.57;51.81;101838.88;5110361;28;20158;-59
2021/12/15 07:07:07;;;;;;;5.30;4.30;;;;;;;18.60;51.64;101832.47;5113181;28;20161;-59
2021/12/15 07:09:36;;;;;;;7.20;5.03;;;;;;;18.61;51.24;101834.16;5100704;28;20187;-59
2021/12/15 07:12:02;;;;;;;7.93;4.97;;;;;;;18.59;51.64;101838.53;5096710;28;20548;-59
2021/12/15 07:14:28;;;;;;;6.20;3.90;;;;;;;18.57;51.39;101836.00;5112297;28;20420;-59
2021/12/15 07:16:55;;;;;;;6.93;4.50;;;;;;;18.62;51.24;101841.53;5109283;28;20513;-59
2021/12/15 07:24:37;;;;;;;7.67;4.63;;;;;;;18.63;51.63;101850.97;5107780;28;20497;-60
2021/12/15 07:27:03;;;;;;;7.03;4.53;;;;;;;18.64;51.88;101850.63;5093718;28;20400;-59
2021/12/15 07:29:29;;;;;;;6.60;4.30;;;;;;;18.61;51.71;101865.63;5102616;28;20792;-59
2021/12/15 07:31:55;;;;;;;5.50;3.67;;;;;;;18.62;51.60;101864.44;5112702;28;20453;-59
2021/12/15 07:34:20;;;;;;;6.87;4.90;;;;;;;18.61;51.75;101862.75;5113232;28;20173;-59
2021/12/15 07:36:45;;;;;;;6.77;4.27;;;;;;;18.64;51.17;101864.09;5112430;27;20182;-60
2021/12/15 07:39:12;;;;;;;6.70;4.50;;;;;;;18.69;51.46;101869.63;5090014;28;20202;-59
2021/12/15 07:41:48;;;;;;;6.70;4.33;;;;;;;18.59;51.52;101865.13;5092466;28;20655;-59
2021/12/15 07:44:14;;;;;;;6.33;4.23;;;;;;;18.64;51.22;101873.53;5105331;28;20453;-59
2021/12/15 07:46:40;;;;;;;6.97;4.90;;;;;;;18.60;51.35;101872.53;5111937;28;20923;-59
2021/12/15 07:49:05;;;;;;;8.70;4.30;;;;;;;18.61;51.38;101882.78;5113267;28;20173;-59
2021/12/15 07:51:31;;;;;;;7.40;4.73;;;;;;;18.59;51.75;101881.44;5106316;28;20759;-59
2021/12/15 07:53:56;;;;;;;6.50;4.20;;;;;;;18.57;51.74;101881.78;5108384;28;20214;-59
2021/12/15 07:56:21;;;;;;;8.10;4.73;;;;;;;18.63;51.30;101880.44;5095484;28;20174;-59
2021/12/15 07:58:47;;;;;;;8.23;4.63;;;;;;;18.62;51.62;101886.50;5110085;28;20242;-59
2021/12/15 08:01:12;;;;;;;6.40;4.10;;;;;;;18.59;51.20;101890.88;5111683;28;20241;-59
2021/12/15 08:03:39;;;;;;;6.73;4.27;;;;;;;18.57;51.69;101884.63;5112825;28;20181;-60
2021/12/15 08:06:04;;;;;;;6.40;4.40;;;;;;;18.62;51.57;101889.34;5108429;28;20519;-59
2021/12/15 08:08:30;;;;;;;6.40;4.83;;;;;;;18.60;51.35;101889.69;5102746;28;20427;-59
2021/12/15 08:10:57;;;;;;;6.97;4.10;;;;;;;18.61;51.96;101890.53;5090691;28;20202;-59
2021/12/15 08:13:30;;;;;;;5.47;4.03;;;;;;;18.59;51.32;101899.47;5098841;28;20561;-59
2021/12/15 08:15:56;;;;;;;6.50;4.00;;;;;;;18.56;51.94;101897.28;5111630;28;20412;-59
2021/12/15 08:18:21;;;;;;;6.03;4.23;;;;;;;18.58;51.43;101897.78;5112140;28;20853;-59
2021/12/15 08:20:47;;;;;;;6.60;4.60;;;;;;;18.58;51.57;101897.78;5110065;28;20189;-59
2021/12/15 08:23:12;;;;;;;7.77;4.43;;;;;;;18.57;51.56;101906.69;5097526;28;20649;-59
2021/12/15 08:25:39;;;;;;;6.23;4.30;;;;;;;18.57;51.61;101912.44;5090951;28;20261;-59
2021/12/15 08:28:05;;;;;;;7.13;4.60;;;;;;;18.59;51.49;101915.78;5077514;28;20189;-59
2021/12/15 08:30:30;;;;;;;6.53;4.67;;;;;;;18.61;51.87;101905.66;5111604;28;20903;-59
2021/12/15 08:32:57;;;;;;;6.43;4.37;;;;;;;18.61;51.43;101908.53;5111540;28;20495;-59
2021/12/15 08:35:26;;;;;;;6.33;4.50;;;;;;;18.60;51.54;101918.28;5112233;28;20173;-59
2021/12/15 08:37:51;;;;;;;8.50;4.67;;;;;;;18.59;51.42;101922.34;5105212;27;20466;-59
2021/12/15 08:40:18;;;;;;;6.80;4.40;;;;;;;18.54;51.72;101922.53;5095325;28;20452;-59
2021/12/15 08:42:43;;;;;;;5.50;4.30;;;;;;;18.55;51.92;101924.19;5090811;28;20171;-59
2021/12/15 08:45:09;;;;;;;6.80;4.77;;;;;;;18.64;51.38;101916.44;5091675;28;20427;-59
2021/12/15 08:47:35;;;;;;;5.87;4.13;;;;;;;18.59;51.68;101922.34;5096603;27;20684;-59
2021/12/15 08:50:00;;;;;;;7.63;4.20;;;;;;;18.66;51.61;101927.53;5122265;27;20423;-59
2021/12/15 08:52:26;;;;;;;7.03;4.50;;;;;;;18.63;51.32;101928.22;5130809;27;20259;-59
2021/12/15 08:54:51;;;;;;;5.40;3.63;;;;;;;18.61;51.38;101927.72;5106550;27;20190;-59
2021/12/15 08:57:17;;;;;;;6.70;4.40;;;;;;;18.65;51.22;101925.84;5111221;28;20261;-59
2021/12/15 08:59:42;;;;;;;7.13;4.43;;;;;;;18.61;51.33;101924.88;5110888;28;20691;-59
2021/12/15 09:02:08;;;;;;;6.50;4.80;;;;;;;18.58;51.68;101926.38;5107579;28;20213;-59
2021/12/15 09:04:33;;;;;;;6.13;4.20;;;;;;;18.61;51.54;101919.16;5089651;28;20185;-59
2021/12/15 09:06:59;;;;;;;6.33;4.00;;;;;;;18.69;51.57;101923.97;5074609;28;20182;-59
2021/12/15 09:09:25;;;;;;;6.57;4.30;;;;;;;18.63;51.43;101934.78;5105549;28;20616;-59
2021/12/15 09:11:51;;;;;;;6.77;4.77;;;;;;;18.63;51.44;101926.19;5110690;28;20188;-59
2021/12/15 09:14:16;;;;;;;7.07;4.20;;;;;;;18.67;51.09;101932.91;5111646;28;20415;-59
2021/12/15 09:16:43;;;;;;;8.20;4.23;;;;;;;18.65;51.54;101935.28;5099968;28;20971;-59
2021/12/15 09:19:08;;;;;;;7.77;4.77;;;;;;;18.64;51.94;101936.47;5101566;28;20197;-60
2021/12/15 09:21:34;;;;;;;6.87;4.30;;;;;;;18.64;51.47;101933.59;5089930;28;20424;-59
2021/12/15 09:24:00;;;;;;;5.23;3.57;;;;;;;18.65;51.46;101935.28;5093950;28;20185;-59
2021/12/15 09:26:26;;;;;;;7.43;4.17;;;;;;;18.68;51.36;101931.75;5111041;28;20255;-59
2021/12/15 09:28:51;;;;;;;5.40;3.80;;;;;;;18.67;51.40;101935.75;5106446;28;20355;-59
2021/12/15 09:31:17;;;;;;;6.00;4.13;;;;;;;18.64;51.21;101936.47;5095844;28;20182;-59
2021/12/15 09:33:44;;;;;;;5.80;3.93;;;;;;;18.63;51.82;101933.94;5090248;28;20212;-59
2021/12/15 09:36:10;;;;;;;6.47;4.03;;;;;;;18.63;51.53;101934.78;5097281;28;20181;-59
2021/12/15 09:38:36;;;;;;;7.00;4.10;;;;;;;18.62;51.66;101940.84;5129710;27;20510;-59
2021/12/15 09:41:02;;;;;;;6.73;4.53;;;;;;;18.62;51.50;101944.53;5133423;27;20526;-59
2021/12/15 09:43:29;;;;;;;6.50;4.13;;;;;;;18.66;51.31;101933.25;5111735;28;20181;-59
2021/12/15 09:46:06;;;;;;;6.90;4.40;;;;;;;18.66;51.70;101936.94;5114149;28;20396;-59
2021/12/15 09:57:14;;;;;;;6.30;4.20;;;;;;;18.65;51.46;101938.13;5114186;28;20422;-59
2021/12/15 10:02:42;;;;;;;7.10;4.17;;;;;;;18.61;51.70;101940.00;5093832;28;20468;-59
2021/12/15 10:10:43;;;;;;;8.10;4.73;;;;;;;18.61;51.25;101934.25;5112778;28;20431;-59
2021/12/15 10:19:26;;;;;;;6.97;4.30;;;;;;;18.58;51.66;101937.84;5108575;28;20454;-59
2021/12/15 10:21:57;;;;;;;6.10;4.00;;;;;;;18.56;52.39;101927.91;5113004;28;20551;-59
2021/12/15 10:24:47;;;;;;;6.07;4.53;;;;;;;18.56;51.43;101934.44;5102547;28;20538;-59
2021/12/15 10:27:16;;;;;;;10.10;4.70;;;;;;;18.62;51.35;101929.41;5092311;28;20429;-59
2021/12/15 10:30:06;;;;;;;6.37;4.10;;;;;;;18.60;51.85;101924.00;5103757;27;20424;-60
2021/12/15 10:32:32;;;;;;;8.70;4.53;;;;;;;18.61;51.75;101922.00;5133736;27;20403;-59
2021/12/15 10:35:08;;;;;;;6.80;4.50;;;;;;;18.61;51.79;101925.69;5134663;27;20421;-59
2021/12/15 10:37:33;;;;;;;5.63;4.07;;;;;;;18.64;51.36;101918.44;5131472;27;20426;-59
2021/12/15 10:40:20;;;;;;;7.10;4.50;;;;;;;18.65;51.45;101915.25;5115369;27;20459;-59
2021/12/15 10:42:45;;;;;;;6.50;4.00;;;;;;;18.62;51.62;101907.34;5113199;28;20283;-59
2021/12/15 10:45:12;;;;;;;6.60;4.87;;;;;;;18.59;51.42;101899.47;5102908;28;20534;-59
2021/12/15 10:47:49;;;;;;;8.60;4.93;;;;;;;18.61;51.61;101905.66;5093387;28;20166;-59
2021/12/15 10:50:17;;;;;;;6.87;4.87;;;;;;;18.61;51.77;101901.97;5092049;28;20428;-59
2021/12/15 10:52:55;;;;;;;6.07;4.40;;;;;;;18.59;51.92;101896.59;5093885;28;20463;-59
2021/12/15 10:55:20;;;;;;;6.60;4.30;;;;;;;18.69;51.59;101901.09;5097014;28;20944;-59
2021/12/15 10:57:46;;;;;;;6.20;4.37;;;;;;;18.69;51.66;101899.09;5092219;28;20416;-59
2021/12/15 11:00:13;;;;;;;6.97;4.70;;;;;;;18.66;51.22;101901.78;5100102;28;20194;-59
2021/12/15 11:02:38;;;;;;;6.53;4.40;;;;;;;18.68;51.31;101900.28;5113047;28;20209;-59
2021/12/15 11:05:05;;;;;;;6.23;4.20;;;;;;;18.61;51.58;101897.09;5107811;28;20486;-59
2021/12/15 11:07:46;;;;;;;6.60;4.43;;;;;;;18.68;51.52;101897.41;5090681;28;20182;-59
2021/12/15 11:10:27;;;;;;;6.03;4.17;;;;;;;18.62;51.75;101893.03;5112570;28;20438;-59
2021/12/15 11:13:04;;;;;;;9.10;4.47;;;;;;;18.68;51.49;101890.84;5111899;28;20478;-59
2021/12/15 11:15:39;;;;;;;5.53;4.10;;;;;;;18.62;51.46;101890.16;5106528;28;20950;-59
2021/12/15 11:18:10;;;;;;;6.77;4.20;;;;;;;18.67;51.24;101886.31;5092742;28;20899;-59
2021/12/15 11:20:40;;;;;;;5.73;4.17;;;;;;;18.71;51.53;101882.41;5094998;28;20561;-59
2021/12/15 11:23:13;;;;;;;5.17;3.90;;;;;;;18.64;51.47;101884.97;5093506;28;20790;-59
2021/12/15 11:25:46;;;;;;;6.77;4.80;;;;;;;18.65;51.43;101880.91;5093311;28;20431;-59
2021/12/15 11:28:17;;;;;;;7.33;4.70;;;;;;;18.66;51.39;101876.88;5103575;28;20431;-60
2021/12/15 11:30:56;;;;;;;6.87;4.47;;;;;;;18.68;51.22;101870.81;5091738;28;20420;-60
2021/12/15 11:33:26;;;;;;;7.27;4.43;;;;;;;18.67;51.45;101864.22;5099812;28;20431;-59
2021/12/15 11:35:58;;;;;;;5.60;4.20;;;;;;;18.63;51.81;101871.84;5092046;28;20442;-59
2021/12/15 11:38:59;;;;;;;6.50;4.13;;;;;;;18.60;51.60;101866.81;5106725;27;20483;-60
2021/12/15 11:41:31;;;;;;;7.13;4.40;;;;;;;18.71;51.25;101867.28;5091965;28;20431;-59
2021/12/15 11:44:23;;;;;;;8.60;4.60;;;;;;;18.63;51.41;101860.41;5091992;28;20428;-59
2021/12/15 11:46:54;;;;;;;7.20;4.50;;;;;;;18.63;51.62;101869.00;5091087;28;20527;-60
2021/12/15 11:49:29;;;;;;;6.53;4.30;;;;;;;18.63;51.50;101862.41;5104635;28;20396;-59
2021/12/15 11:51:57;;;;;;;7.83;4.27;;;;;;;18.66;51.35;101853.16;5111982;28;20421;-60
2021/12/15 11:54:29;;;;;;;6.30;4.13;;;;;;;18.65;51.42;101852.31;5094666;28;20412;-59
2021/12/15 11:56:55;;;;;;;6.27;4.33;;;;;;;18.65;51.56;101846.59;5109056;28;20447;-59
2021/12/15 11:59:49;;;;;;;7.00;3.90;;;;;;;18.66;51.40;101845.41;5112002;28;20988;-59
2021/12/15 12:02:34;;;;;;;7.33;4.70;;;;;;;18.61;51.83;101845.59;5103524;28;20233;-59
2021/12/15 12:05:06;;;;;;;6.77;4.33;;;;;;;18.63;51.54;101845.25;5112655;28;20891;-60
2021/12/15 12:07:37;;;;;;;6.57;4.30;;;;;;;18.69;51.59;101838.16;5109827;28;20506;-59
2021/12/15 12:10:19;;;;;;;7.40;4.60;;;;;;;18.62;51.77;101841.53;5093030;28;20932;-59
2021/12/15 12:13:07;;;;;;;6.73;4.60;;;;;;;18.66;51.31;101825.38;5107849;28;20442;-59
2021/12/15 12:15:37;;;;;;;5.67;4.03;;;;;;;18.69;51.49;101838.16;5096803;28;20923;-59
2021/12/15 12:18:07;;;;;;;6.73;4.07;;;;;;;18.67;51.65;101835.63;5112405;28;20423;-59
2021/12/15 12:20:36;;;;;;;6.63;4.40;;;;;;;18.63;51.63;101837.53;5106721;28;20575;-59
2021/12/15 12:23:03;;;;;;;6.77;4.80;;;;;;;18.67;51.40;101829.09;5104778;27;20446;-61
2021/12/15 12:25:37;;;;;;;5.83;4.13;;;;;;;18.69;51.56;101829.56;5111175;28;20419;-59
2021/12/15 12:28:05;;;;;;;5.50;3.83;;;;;;;18.62;51.42;101824.38;5111527;28;20520;-59
2021/12/15 12:30:32;;;;;;;6.50;4.53;;;;;;;18.67;51.53;101820.50;5108506;28;20411;-60
2021/12/15 12:32:59;;;;;;;6.40;4.20;;;;;;;18.67;51.82;101821.31;5111220;27;20926;-59
2021/12/15 12:35:32;;;;;;;5.87;4.27;;;;;;;18.64;51.72;101822.03;5131283;27;20953;-59
2021/12/15 12:37:59;;;;;;;6.33;4.13;;;;;;;18.65;51.38;101812.25;5116452;27;20474;-59
2021/12/15 12:40:28;;;;;;;7.30;4.73;;;;;;;18.65;51.32;101812.25;5111537;28;20447;-59
2021/12/15 12:42:53;;;;;;;7.47;5.07;;;;;;;18.65;51.63;101815.13;5100353;28;20962;-59
2021/12/15 12:45:40;;;;;;;6.77;4.47;;;;;;;18.66;51.59;101815.97;5111790;28;20431;-59